createdAt,value
2022-08-22T00:01:32.270Z,7.70
2022-08-22T00:02:48.495Z,5.70
2022-08-22T00:02:59.281Z,7.40
2022-08-22T00:04:34.405Z,8.20
2022-08-22T00:07:03.384Z,8.00
2022-08-22T00:10:02.485Z,7.50
2022-08-22T00:12:40.763Z,7.80
2022-08-22T00:15:42.123Z,7.40
2022-08-22T00:18:20.125Z,7.60
2022-08-22T00:21:08.510Z,8.20
2022-08-22T00:23:56.503Z,8.20
2022-08-22T00:26:24.488Z,8.40
2022-08-22T00:29:07.891Z,7.90
2022-08-22T00:31:41.250Z,8.30
2022-08-22T00:34:14.712Z,7.50
2022-08-22T00:37:03.805Z,7.80
2022-08-22T00:39:45.726Z,8.10
2022-08-22T00:42:35.456Z,7.90
2022-08-22T00:45:38.451Z,7.40
2022-08-22T00:48:22.275Z,8.40
2022-08-22T00:51:16.540Z,7.80
2022-08-22T00:53:59.208Z,8.20
2022-08-22T00:56:27.132Z,8.50
2022-08-22T00:59:11.982Z,8.50
2022-08-22T01:02:02.015Z,8.70
2022-08-22T01:04:40.542Z,8.40
2022-08-22T01:07:20.256Z,8.50
2022-08-22T01:10:19.378Z,8.20
2022-08-22T01:13:20.952Z,8.60
2022-08-22T01:15:53.756Z,8.40
2022-08-22T01:19:12.881Z,8.10
2022-08-22T01:22:02.722Z,8.50
2022-08-22T01:25:07.926Z,9.20
2022-08-22T01:28:14.422Z,8.30
2022-08-22T01:31:01.021Z,8.40
2022-08-22T01:34:15.278Z,8.50
2022-08-22T01:37:02.115Z,8.70
2022-08-22T01:40:18.070Z,8.50
2022-08-22T01:43:15.965Z,8.70
2022-08-22T01:45:52.712Z,9.10
2022-08-22T01:48:32.037Z,8.70
2022-08-22T01:51:26.192Z,9.30
2022-08-22T01:54:32.670Z,8.80
2022-08-22T01:57:08.136Z,8.90
2022-08-22T01:59:42.375Z,9.00
2022-08-22T02:02:30.216Z,8.50
2022-08-22T02:05:24.037Z,9.40
2022-08-22T02:07:56.828Z,9.40
2022-08-22T02:11:01.869Z,9.30
2022-08-22T02:13:32.972Z,9.00
2022-08-22T02:16:13.025Z,9.00
2022-08-22T02:18:57.075Z,9.60
2022-08-22T02:21:40.918Z,10.20
2022-08-22T02:24:33.550Z,9.60
2022-08-22T02:27:22.706Z,9.30
2022-08-22T02:30:03.629Z,8.80
2022-08-22T02:32:41.149Z,9.70
2022-08-22T02:35:33.716Z,8.50
2022-08-22T02:38:19.737Z,9.70
2022-08-22T02:41:07.674Z,9.20
2022-08-22T02:44:02.450Z,9.20
2022-08-22T02:46:51.894Z,9.30
2022-08-22T02:49:27.481Z,8.90
2022-08-22T02:52:19.315Z,9.10
2022-08-22T02:55:35.469Z,9.00
2022-08-22T02:58:21.347Z,9.40
2022-08-22T03:01:13.333Z,9.50
2022-08-22T03:03:46.014Z,9.10
2022-08-22T03:06:38.499Z,9.50
2022-08-22T03:09:15.360Z,9.70
2022-08-22T03:11:49.497Z,8.40
2022-08-22T03:14:48.634Z,9.00
2022-08-22T03:17:52.685Z,8.80
2022-08-22T03:20:45.978Z,9.50
2022-08-22T03:23:31.663Z,9.10
2022-08-22T03:26:25.374Z,9.00
2022-08-22T03:29:01.574Z,8.90
2022-08-22T03:31:32.031Z,9.30
2022-08-22T03:34:27.334Z,9.50
2022-08-22T03:37:21.239Z,9.50
2022-08-22T03:40:02.895Z,9.80
2022-08-22T03:43:00.196Z,9.60
2022-08-22T03:45:53.097Z,9.50
2022-08-22T03:48:51.044Z,9.30
2022-08-22T03:51:33.810Z,9.90
2022-08-22T03:54:22.085Z,9.70
2022-08-22T03:57:14.936Z,9.40
2022-08-22T03:59:55.970Z,9.10
2022-08-22T04:03:07.965Z,9.80
2022-08-22T04:06:13.634Z,10.20
2022-08-22T04:08:50.621Z,10.50
2022-08-22T04:12:00.769Z,9.60
2022-08-22T04:14:42.366Z,9.50
2022-08-22T04:17:41.325Z,8.80
2022-08-22T04:20:09.805Z,9.30
2022-08-22T04:23:14.296Z,9.60
2022-08-22T04:26:12.285Z,9.70
2022-08-22T04:28:51.082Z,9.10
2022-08-22T04:31:28.122Z,9.70
2022-08-22T04:34:15.774Z,9.90
2022-08-22T04:36:50.811Z,8.90
2022-08-22T04:39:28.266Z,8.90
2022-08-22T04:42:32.575Z,9.30
2022-08-22T04:45:05.994Z,9.50
2022-08-22T04:47:46.047Z,9.10
2022-08-22T04:50:29.628Z,9.70
2022-08-22T04:53:27.531Z,9.20
2022-08-22T04:56:17.414Z,9.00
2022-08-22T04:59:05.356Z,9.10
2022-08-22T05:01:44.536Z,8.80
2022-08-22T05:04:23.914Z,9.10
2022-08-22T05:07:00.083Z,9.50
2022-08-22T05:09:33.315Z,8.80
2022-08-22T05:12:09.283Z,8.80
2022-08-22T05:14:43.048Z,8.10
2022-08-22T05:17:16.995Z,8.50
2022-08-22T05:19:53.814Z,8.60
2022-08-22T05:22:28.728Z,8.20
2022-08-22T05:25:11.678Z,8.30
2022-08-22T05:27:45.490Z,7.60
2022-08-22T05:30:22.250Z,7.20
2022-08-22T05:33:04.651Z,7.50
2022-08-22T05:35:58.073Z,7.50
2022-08-22T05:38:35.198Z,6.40
2022-08-22T05:41:10.951Z,6.40
2022-08-22T05:43:43.338Z,6.70
2022-08-22T05:46:43.606Z,6.20
2022-08-22T05:49:37.425Z,6.50
2022-08-22T05:52:30.170Z,5.40
2022-08-22T05:55:26.402Z,5.70
2022-08-22T05:58:15.075Z,5.90
2022-08-22T06:00:48.876Z,5.80
2022-08-22T06:03:34.033Z,5.30
2022-08-22T06:06:13.787Z,5.40
2022-08-22T06:09:05.938Z,5.30
2022-08-22T06:12:00.107Z,5.40
2022-08-22T06:14:42.848Z,5.20
2022-08-22T06:17:17.316Z,5.80
2022-08-22T06:19:48.827Z,5.10
2022-08-22T06:22:25.425Z,5.00
2022-08-22T06:24:57.415Z,5.90
2022-08-22T06:27:31.110Z,5.60
2022-08-22T06:30:04.139Z,5.40
2022-08-22T06:32:58.435Z,5.10
2022-08-22T06:36:26.164Z,5.50
2022-08-22T06:39:05.965Z,5.40
2022-08-22T06:41:39.896Z,5.60
2022-08-22T06:44:10.454Z,5.60
2022-08-22T06:46:39.436Z,5.50
2022-08-22T06:49:09.893Z,5.60
2022-08-22T06:51:39.499Z,5.60
2022-08-22T06:54:17.174Z,5.70
2022-08-22T06:56:50.295Z,5.90
2022-08-22T06:59:24.126Z,5.20
2022-08-22T07:01:55.026Z,5.90
2022-08-22T07:04:26.911Z,5.80
2022-08-22T07:06:59.335Z,5.80
2022-08-22T07:09:40.260Z,5.10
2022-08-22T07:12:19.794Z,5.90
2022-08-22T07:14:51.557Z,5.80
2022-08-22T07:17:37.846Z,5.10
2022-08-22T07:20:28.780Z,5.80
2022-08-22T07:23:05.728Z,5.40
2022-08-22T07:26:09.296Z,5.40
2022-08-22T07:28:51.186Z,5.40
2022-08-22T07:31:33.652Z,5.20
2022-08-22T07:34:44.899Z,5.40
2022-08-22T07:37:18.426Z,5.00
2022-08-22T07:40:03.707Z,5.20
2022-08-22T07:43:01.659Z,4.90
2022-08-22T07:45:49.588Z,5.00
2022-08-22T07:48:29.865Z,4.90
2022-08-22T07:51:02.955Z,4.80
2022-08-22T07:53:36.660Z,4.70
2022-08-22T07:56:08.201Z,5.20
2022-08-22T07:58:39.784Z,5.00
2022-08-22T08:01:17.112Z,4.50
2022-08-22T08:03:53.455Z,4.50
2022-08-22T08:06:24.898Z,4.70
2022-08-22T08:08:54.534Z,4.40
2022-08-22T08:11:26.242Z,4.00
2022-08-22T08:14:00.895Z,4.30
2022-08-22T08:16:34.679Z,4.50
2022-08-22T08:19:03.235Z,4.80
2022-08-22T08:21:37.631Z,4.90
2022-08-22T08:24:09.088Z,4.50
2022-08-22T08:27:04.014Z,4.90
2022-08-22T08:29:33.625Z,4.60
2022-08-22T08:32:02.395Z,4.00
2022-08-22T08:34:35.240Z,4.60
2022-08-22T08:37:15.219Z,4.10
2022-08-22T08:39:50.037Z,4.40
2022-08-22T08:42:59.595Z,4.60
2022-08-22T08:45:36.389Z,4.50
2022-08-22T08:48:38.975Z,4.80
2022-08-22T08:51:51.155Z,4.80
2022-08-22T08:54:51.942Z,4.70
2022-08-22T08:57:45.583Z,4.30
2022-08-22T09:00:40.925Z,5.20
2022-08-22T09:03:27.330Z,4.50
2022-08-22T09:06:05.885Z,4.60
2022-08-22T09:08:55.548Z,4.80
2022-08-22T09:11:36.059Z,4.20
2022-08-22T09:14:41.105Z,4.40
2022-08-22T09:17:30.976Z,4.60
2022-08-22T09:20:25.015Z,4.70
2022-08-22T09:22:56.615Z,4.40
2022-08-22T09:25:38.566Z,4.30
2022-08-22T09:28:18.349Z,3.90
2022-08-22T09:31:16.606Z,4.60
2022-08-22T09:34:01.597Z,4.50
2022-08-22T09:37:02.907Z,4.30
2022-08-22T09:39:42.821Z,4.00
2022-08-22T09:42:34.200Z,4.10
2022-08-22T09:45:30.719Z,4.40
2022-08-22T09:48:07.770Z,4.10
2022-08-22T09:50:38.614Z,4.10
2022-08-22T09:53:11.090Z,3.90
2022-08-22T09:56:01.370Z,4.20
2022-08-22T09:59:05.164Z,4.10
2022-08-22T10:01:48.364Z,4.20
2022-08-22T10:04:39.349Z,4.10
2022-08-22T10:07:34.949Z,4.10
2022-08-22T10:10:26.250Z,3.90
2022-08-22T10:12:57.403Z,4.50
2022-08-22T10:16:09.015Z,4.20
2022-08-22T10:18:53.900Z,4.50
2022-08-22T10:21:38.377Z,3.80
2022-08-22T10:24:36.434Z,3.90
2022-08-22T10:27:37.444Z,4.40
2022-08-22T10:30:17.890Z,4.30
2022-08-22T10:33:05.307Z,4.30
2022-08-22T10:35:59.324Z,4.50
2022-08-22T10:38:46.119Z,4.10
2022-08-22T10:41:22.551Z,4.20
2022-08-22T10:44:01.042Z,4.10
2022-08-22T10:46:59.078Z,4.50
2022-08-22T10:49:54.361Z,4.60
2022-08-22T10:52:32.194Z,4.20
2022-08-22T10:55:13.006Z,4.20
2022-08-22T10:57:52.827Z,4.80
2022-08-22T11:00:50.306Z,4.40
2022-08-22T11:03:25.958Z,4.20
2022-08-22T11:05:59.855Z,4.70
2022-08-22T11:08:34.933Z,4.70
2022-08-22T11:11:34.463Z,4.30
2022-08-22T11:14:39.708Z,4.80
2022-08-22T11:17:31.110Z,4.70
2022-08-22T11:20:19.814Z,4.90
2022-08-22T11:22:55.672Z,4.50
2022-08-22T11:25:38.842Z,4.40
2022-08-22T11:28:19.971Z,4.50
2022-08-22T11:31:20.762Z,4.00
2022-08-22T11:34:03.679Z,3.70
2022-08-22T11:36:40.362Z,3.90
2022-08-22T11:39:24.044Z,4.30
2022-08-22T11:42:13.725Z,4.20
2022-08-22T11:44:50.684Z,4.70
2022-08-22T11:47:24.194Z,4.30
2022-08-22T11:50:35.183Z,4.50
2022-08-22T11:53:34.494Z,4.80
2022-08-22T11:56:59.975Z,4.60
2022-08-22T11:59:55.713Z,4.30
2022-08-22T12:02:41.954Z,4.50
2022-08-22T12:05:26.135Z,4.30
2022-08-22T12:08:05.518Z,4.70
2022-08-22T12:10:47.328Z,4.10
2022-08-22T12:13:40.445Z,5.00
2022-08-22T12:16:37.245Z,4.30
2022-08-22T12:19:48.890Z,4.50
2022-08-22T12:22:57.897Z,4.50
2022-08-22T12:25:44.489Z,4.80
2022-08-22T12:28:48.459Z,4.60
2022-08-22T12:31:38.314Z,5.20
2022-08-22T12:34:44.677Z,4.30
2022-08-22T12:37:25.619Z,4.90
2022-08-22T12:40:12.159Z,4.20
2022-08-22T12:42:43.934Z,4.80
2022-08-22T12:46:05.816Z,4.70
2022-08-22T12:48:54.771Z,4.50
2022-08-22T12:52:12.282Z,4.30
2022-08-22T12:55:25.810Z,4.30
2022-08-22T12:58:12.288Z,4.40
2022-08-22T13:00:45.402Z,4.70
2022-08-22T13:03:35.675Z,5.20
2022-08-22T13:06:35.805Z,4.60
2022-08-22T13:09:28.938Z,4.20
2022-08-22T13:12:51.050Z,3.90
2022-08-22T13:15:22.139Z,4.10
2022-08-22T13:17:52.756Z,4.10
2022-08-22T13:20:37.080Z,4.40
2022-08-22T13:23:28.629Z,4.60
2022-08-22T13:26:31.669Z,4.80
2022-08-22T13:29:39.324Z,4.70
2022-08-22T13:32:23.689Z,4.40
2022-08-22T13:34:57.005Z,5.20
2022-08-22T13:37:31.917Z,4.60
2022-08-22T13:40:04.861Z,4.70
2022-08-22T13:42:41.177Z,4.60
2022-08-22T13:45:22.685Z,4.70
2022-08-22T13:47:57.637Z,4.60
2022-08-22T13:50:30.125Z,4.40
2022-08-22T13:53:36.278Z,4.80
2022-08-22T13:56:18.106Z,4.40
2022-08-22T13:58:55.955Z,4.60
2022-08-22T14:01:38.071Z,5.10
2022-08-22T14:04:30.934Z,4.60
2022-08-22T14:07:04.573Z,5.10
2022-08-22T14:09:53.310Z,5.10
2022-08-22T14:12:51.100Z,4.90
2022-08-22T14:15:32.140Z,4.40
2022-08-22T14:18:13.975Z,5.00
2022-08-22T14:20:44.779Z,4.40
2022-08-22T14:23:34.426Z,5.10
2022-08-22T14:26:02.781Z,4.70
2022-08-22T14:28:35.817Z,4.90
2022-08-22T14:31:08.735Z,4.70
2022-08-22T14:33:43.825Z,4.60
2022-08-22T14:36:36.250Z,4.80
2022-08-22T14:39:16.853Z,4.80
2022-08-22T14:41:58.656Z,4.50
2022-08-22T14:44:36.971Z,4.90
2022-08-22T14:47:43.235Z,4.80
2022-08-22T14:50:11.289Z,4.70
2022-08-22T14:52:43.728Z,4.80
2022-08-22T14:55:26.416Z,4.80
2022-08-22T14:58:05.954Z,4.70
2022-08-22T15:00:38.617Z,4.80
2022-08-22T15:03:29.135Z,4.60
2022-08-22T15:06:03.631Z,5.20
2022-08-22T15:08:42.335Z,5.00
2022-08-22T15:11:17.297Z,5.20
2022-08-22T15:14:13.683Z,5.00
2022-08-22T15:17:00.968Z,5.20
2022-08-22T15:19:41.014Z,4.80
2022-08-22T15:22:25.773Z,4.80
2022-08-22T15:25:20.024Z,5.10
2022-08-22T15:27:59.509Z,5.20
2022-08-22T15:30:44.310Z,5.00
2022-08-22T15:33:15.778Z,5.10
2022-08-22T15:35:46.539Z,5.10
2022-08-22T15:38:27.812Z,5.20
2022-08-22T15:41:16.858Z,5.20
2022-08-22T15:43:54.304Z,5.30
2022-08-22T15:46:44.062Z,5.40
2022-08-22T15:49:26.065Z,5.80
2022-08-22T15:52:03.193Z,4.90
2022-08-22T15:54:38.910Z,5.10
2022-08-22T15:57:17.755Z,5.20
2022-08-22T15:59:53.877Z,4.80
2022-08-22T16:02:41.088Z,5.00
2022-08-22T16:05:08.998Z,5.10
2022-08-22T16:07:43.958Z,4.90
2022-08-22T16:10:23.986Z,5.40
2022-08-22T16:13:37.995Z,5.00
2022-08-22T16:16:12.644Z,5.40
2022-08-22T16:18:40.487Z,5.20
2022-08-22T16:21:17.725Z,5.00
2022-08-22T16:23:56.519Z,5.20
2022-08-22T16:26:30.478Z,5.50
2022-08-22T16:29:14.785Z,5.50
2022-08-22T16:31:48.794Z,5.80
2022-08-22T16:34:16.838Z,5.30
2022-08-22T16:37:11.007Z,6.00
2022-08-22T16:40:01.990Z,5.90
2022-08-22T16:43:14.216Z,5.40
2022-08-22T16:45:48.860Z,5.00
2022-08-22T16:48:45.833Z,5.50
2022-08-22T16:51:18.995Z,5.30
2022-08-22T16:54:11.827Z,5.60
2022-08-22T16:57:14.654Z,5.20
2022-08-22T16:59:52.840Z,5.30
2022-08-22T17:02:49.767Z,4.90
2022-08-22T17:05:30.307Z,5.20
2022-08-22T17:08:35.784Z,5.00
2022-08-22T17:11:06.870Z,5.20
2022-08-22T17:13:56.294Z,5.40
2022-08-22T17:16:54.123Z,5.50
2022-08-22T17:20:00.843Z,5.40
2022-08-22T17:22:33.009Z,6.40
2022-08-22T17:25:40.604Z,7.10
2022-08-22T17:28:30.086Z,6.10
2022-08-22T17:31:24.776Z,7.20
2022-08-22T17:34:15.380Z,6.30
2022-08-22T17:36:53.793Z,6.20
2022-08-22T17:39:55.973Z,7.70
2022-08-22T17:42:41.123Z,6.80
2022-08-22T17:45:18.209Z,6.80
2022-08-22T17:47:58.614Z,7.30
2022-08-22T17:50:38.716Z,6.80
2022-08-22T17:53:16.344Z,6.70
2022-08-22T17:56:19.504Z,7.10
2022-08-22T17:59:31.304Z,6.90
2022-08-22T18:02:16.717Z,6.40
2022-08-22T18:05:11.174Z,6.60
2022-08-22T18:07:55.317Z,6.50
2022-08-22T18:10:46.428Z,7.00
2022-08-22T18:13:58.267Z,6.70
2022-08-22T18:16:44.110Z,6.80
2022-08-22T18:19:24.271Z,6.80
2022-08-22T18:21:59.850Z,7.20
2022-08-22T18:25:10.937Z,6.90
2022-08-22T18:28:24.327Z,7.50
2022-08-22T18:31:06.220Z,7.40
2022-08-22T18:33:41.771Z,7.20
2022-08-22T18:36:30.390Z,6.70
2022-08-22T18:39:05.603Z,7.00
2022-08-22T18:41:51.341Z,7.70
2022-08-22T18:44:32.005Z,7.80
2022-08-22T18:47:34.492Z,8.10
2022-08-22T18:50:28.292Z,7.60
2022-08-22T18:52:57.572Z,7.20
2022-08-22T18:55:58.475Z,8.00
2022-08-22T18:59:13.901Z,7.90
2022-08-22T19:02:12.261Z,7.70
2022-08-22T19:05:05.937Z,7.60
2022-08-22T19:07:56.742Z,7.50
2022-08-22T19:10:39.455Z,7.60
2022-08-22T19:13:22.685Z,7.70
2022-08-22T19:16:07.014Z,8.20
2022-08-22T19:18:41.485Z,7.50
2022-08-22T19:21:45.255Z,7.80
2022-08-22T19:24:13.243Z,8.00
2022-08-22T19:26:45.096Z,8.10
2022-08-22T19:29:18.932Z,8.10
2022-08-22T19:31:50.805Z,8.00
2022-08-22T19:34:32.888Z,8.60
2022-08-22T19:37:30.682Z,8.30
2022-08-22T19:40:07.723Z,8.20
2022-08-22T19:42:50.316Z,8.40
2022-08-22T19:45:29.298Z,8.10
2022-08-22T19:48:14.137Z,9.10
2022-08-22T19:50:43.906Z,8.30
2022-08-22T19:53:46.296Z,8.60
2022-08-22T19:56:45.297Z,8.80
2022-08-22T19:59:28.626Z,8.60
2022-08-22T20:01:56.583Z,8.70
2022-08-22T20:04:27.215Z,9.00
2022-08-22T20:07:05.786Z,8.60
2022-08-22T20:10:19.324Z,8.20
2022-08-22T20:13:09.199Z,8.80
2022-08-22T20:16:13.687Z,9.50
2022-08-22T20:19:06.036Z,8.60
2022-08-22T20:22:00.737Z,8.30
2022-08-22T20:24:49.357Z,8.80
2022-08-22T20:27:20.215Z,8.00
2022-08-22T20:30:08.236Z,8.90
2022-08-22T20:33:28.732Z,8.50
2022-08-22T20:36:01.725Z,8.60
2022-08-22T20:38:55.469Z,8.70
2022-08-22T20:41:38.241Z,8.70
2022-08-22T20:44:33.426Z,8.90
2022-08-22T20:47:19.430Z,8.80
2022-08-22T20:49:54.887Z,8.80
2022-08-22T20:52:30.878Z,8.50
2022-08-22T20:55:17.434Z,8.70
2022-08-22T20:57:52.847Z,8.80
2022-08-22T21:00:31.913Z,9.10
2022-08-22T21:03:02.704Z,9.20
2022-08-22T21:05:45.460Z,9.40
2022-08-22T21:08:15.039Z,9.00
2022-08-22T21:11:02.162Z,8.50
2022-08-22T21:13:35.671Z,9.30
2022-08-22T21:16:19.842Z,9.00
2022-08-22T21:18:53.285Z,9.40
2022-08-22T21:21:31.692Z,10.20
2022-08-22T21:24:03.525Z,9.40
2022-08-22T21:26:37.040Z,9.50
2022-08-22T21:29:14.422Z,9.00
2022-08-22T21:31:45.031Z,8.80
2022-08-22T21:34:35.633Z,9.10
2022-08-22T21:37:32.443Z,9.70
2022-08-22T21:40:03.088Z,9.10
2022-08-22T21:42:39.197Z,9.30
2022-08-22T21:45:25.361Z,9.40
2022-08-22T21:47:55.173Z,9.70
2022-08-22T21:50:26.101Z,10.30
2022-08-22T21:52:54.015Z,9.30
2022-08-22T21:55:22.075Z,9.50
2022-08-22T21:58:12.113Z,10.20
2022-08-22T22:00:49.805Z,10.30
2022-08-22T22:03:22.963Z,9.70
2022-08-22T22:05:55.115Z,10.00
2022-08-22T22:08:23.355Z,9.70
2022-08-22T22:11:06.035Z,9.50
2022-08-22T22:13:36.645Z,9.50
2022-08-22T22:16:15.115Z,10.50
2022-08-22T22:18:43.115Z,9.90
2022-08-22T22:21:10.971Z,10.00
2022-08-22T22:23:38.905Z,10.20
2022-08-22T22:26:07.202Z,9.90
2022-08-22T22:28:39.834Z,9.90
2022-08-22T22:31:08.805Z,10.10
2022-08-22T22:33:39.995Z,10.80
2022-08-22T22:36:16.435Z,10.00
2022-08-22T22:38:45.048Z,10.60
2022-08-22T22:41:13.274Z,9.90
2022-08-22T22:43:41.328Z,10.00
2022-08-22T22:46:09.407Z,10.90
2022-08-22T22:48:37.578Z,10.80
2022-08-22T22:51:10.793Z,11.20
2022-08-22T22:53:43.180Z,11.10
2022-08-22T22:56:17.857Z,10.80
2022-08-22T22:59:01.124Z,11.20
2022-08-22T23:02:19.219Z,10.90
2022-08-22T23:04:52.535Z,10.00
2022-08-22T23:07:21.757Z,11.00
2022-08-22T23:09:53.433Z,11.30
2022-08-22T23:12:30.057Z,11.00
2022-08-22T23:14:57.938Z,11.30
2022-08-22T23:17:25.882Z,12.00
2022-08-22T23:19:54.045Z,10.80
2022-08-22T23:22:22.355Z,10.60
2022-08-22T23:24:50.682Z,11.20
2022-08-22T23:27:18.768Z,11.30
2022-08-22T23:29:46.925Z,10.60
2022-08-22T23:32:15.006Z,11.20
2022-08-22T23:34:46.247Z,10.80
2022-08-22T23:37:22.093Z,11.20
2022-08-22T23:39:50.289Z,10.90
2022-08-22T23:42:19.878Z,11.70
2022-08-22T23:44:47.811Z,10.40
2022-08-22T23:47:16.105Z,10.80
2022-08-22T23:49:45.183Z,10.80
2022-08-22T23:52:13.993Z,11.20
2022-08-22T23:54:42.265Z,11.80
2022-08-22T23:57:12.216Z,11.60
2022-08-22T23:59:48.585Z,11.50
